Time;durP1;ratioP1;P1;durP2;ratioP2;P2;SDS_P1;SDS_P2;PMS_P1;PMS_P2;Temp;Humidity;BMP_temperature;BMP_pressure;BME280_temperature;BME280_humidity;BME280_pressure;Samples;Min_cycle;Max_cycle;Signal;HPM_P1;HPM_P2
2023/12/25 00:01:10;;;;;;;1.20;0.90;;;9.50;99.90;;;;;;5066017;28;20986;-49
2023/12/25 00:03:38;;;;;;;1.50;0.90;;;9.50;99.90;;;;;;5052520;28;20553;-48
2023/12/25 00:06:17;;;;;;;3.50;1.13;;;9.50;99.90;;;;;;5052581;28;20525;-46
2023/12/25 00:08:48;;;;;;;1.80;0.70;;;9.50;99.90;;;;;;5064096;28;20421;-47
2023/12/25 00:11:16;;;;;;;2.90;1.20;;;9.50;99.90;;;;;;5056890;28;20504;-46
2023/12/25 00:13:47;;;;;;;1.63;0.70;;;9.50;99.90;;;;;;5045368;28;20538;-48
2023/12/25 00:16:15;;;;;;;2.20;0.90;;;9.50;99.90;;;;;;5058056;28;21062;-50
2023/12/25 00:18:43;;;;;;;2.33;0.77;;;9.50;99.90;;;;;;5065104;28;20429;-47
2023/12/25 00:21:11;;;;;;;2.20;1.00;;;9.50;99.90;;;;;;5062353;28;21057;-49
2023/12/25 00:23:39;;;;;;;1.30;1.10;;;9.50;99.90;;;;;;5057437;28;20467;-48
2023/12/25 00:26:07;;;;;;;1.67;0.80;;;9.50;99.90;;;;;;5057845;28;20502;-47
2023/12/25 00:28:37;;;;;;;1.23;0.87;;;9.50;99.90;;;;;;5060173;28;20445;-47
2023/12/25 00:31:07;;;;;;;3.23;0.90;;;9.50;99.90;;;;;;5059126;28;20979;-47
2023/12/25 00:33:35;;;;;;;1.20;0.80;;;9.50;99.90;;;;;;5066787;28;20441;-49
2023/12/25 00:36:04;;;;;;;1.27;0.73;;;9.50;99.90;;;;;;5058009;28;20568;-49
2023/12/25 00:38:32;;;;;;;1.33;0.70;;;9.50;99.90;;;;;;5054551;28;20459;-48
2023/12/25 00:41:00;;;;;;;1.70;0.80;;;9.50;99.90;;;;;;5056619;28;20469;-48
2023/12/25 00:43:28;;;;;;;1.67;1.00;;;9.50;99.90;;;;;;5054248;28;20480;-47
2023/12/25 00:45:57;;;;;;;4.17;1.00;;;9.50;99.90;;;;;;5061394;28;21261;-47
2023/12/25 00:48:27;;;;;;;1.27;0.87;;;9.50;99.90;;;;;;5067142;28;20437;-47
2023/12/25 00:50:55;;;;;;;1.20;0.80;;;9.50;99.90;;;;;;5060034;28;20620;-48
2023/12/25 00:53:23;;;;;;;1.10;0.73;;;9.50;99.90;;;;;;5038011;28;20709;-47
2023/12/25 00:55:51;;;;;;;1.20;0.70;;;9.50;99.90;;;;;;5064171;28;20488;-47
2023/12/25 00:58:20;;;;;;;1.20;0.70;;;9.50;99.90;;;;;;5056573;28;20454;-48
2023/12/25 01:00:49;;;;;;;1.97;0.83;;;9.50;99.90;;;;;;5065406;28;20520;-47
2023/12/25 01:03:17;;;;;;;4.03;1.10;;;9.50;99.90;;;;;;5057254;28;20989;-47
2023/12/25 01:05:47;;;;;;;1.77;0.50;;;9.50;99.90;;;;;;5054403;28;21103;-48
2023/12/25 01:08:15;;;;;;;1.30;1.00;;;9.50;99.90;;;;;;5058176;28;20507;-46
2023/12/25 01:10:43;;;;;;;2.00;0.87;;;9.50;99.90;;;;;;5060631;28;20465;-47
2023/12/25 01:13:11;;;;;;;1.10;0.80;;;9.50;99.90;;;;;;5040710;28;20447;-48
2023/12/25 01:15:39;;;;;;;1.30;0.70;;;9.50;99.90;;;;;;5063655;28;20819;-45
2023/12/25 01:18:09;;;;;;;1.40;0.57;;;9.50;99.90;;;;;;5063910;28;20442;-48
2023/12/25 01:20:37;;;;;;;1.20;0.80;;;9.50;99.90;;;;;;5066422;28;20474;-48
2023/12/25 01:23:06;;;;;;;1.43;0.63;;;9.50;99.90;;;;;;5057428;28;20542;-47
2023/12/25 01:25:35;;;;;;;1.43;0.77;;;9.50;99.90;;;;;;5054726;28;20470;-47
2023/12/25 01:28:03;;;;;;;1.53;0.60;;;9.50;99.90;;;;;;5055144;28;20455;-47
2023/12/25 01:30:31;;;;;;;1.30;0.70;;;9.50;99.90;;;;;;5049216;28;20963;-48
2023/12/25 01:32:59;;;;;;;1.40;0.70;;;9.50;99.90;;;;;;5062099;28;20495;-48
2023/12/25 01:35:27;;;;;;;1.43;0.60;;;9.50;99.90;;;;;;5062591;28;20459;-47
2023/12/25 01:37:55;;;;;;;2.03;0.60;;;9.50;99.90;;;;;;5055843;28;20453;-46
2023/12/25 01:40:25;;;;;;;1.40;0.63;;;9.50;99.90;;;;;;5050483;28;20473;-49
2023/12/25 01:42:56;;;;;;;1.33;0.60;;;9.50;99.90;;;;;;5051170;28;20830;-47
2023/12/25 01:45:24;;;;;;;1.20;0.63;;;9.50;99.90;;;;;;5055424;28;20903;-48
2023/12/25 01:47:52;;;;;;;1.30;0.80;;;9.50;99.90;;;;;;5064819;28;20427;-47
2023/12/25 01:50:21;;;;;;;1.43;0.70;;;9.50;99.90;;;;;;5065993;28;20968;-47
2023/12/25 01:52:50;;;;;;;0.90;0.53;;;9.60;99.90;;;;;;5057162;28;20458;-47
2023/12/25 01:55:18;;;;;;;1.30;0.80;;;9.50;99.90;;;;;;5056995;28;20457;-48
2023/12/25 01:57:48;;;;;;;1.20;0.50;;;9.50;99.90;;;;;;5057511;28;20444;-47
2023/12/25 02:00:16;;;;;;;1.93;0.60;;;9.50;99.90;;;;;;5054479;28;21074;-47
2023/12/25 02:02:44;;;;;;;1.00;0.50;;;9.50;99.90;;;;;;5056687;28;20465;-48
2023/12/25 02:05:13;;;;;;;1.20;0.57;;;9.50;99.90;;;;;;5061779;28;20481;-50
2023/12/25 02:07:43;;;;;;;1.07;0.50;;;9.50;99.90;;;;;;5062321;28;20439;-49
2023/12/25 02:10:11;;;;;;;1.80;0.70;;;9.50;99.90;;;;;;5062950;28;20447;-50
2023/12/25 02:12:39;;;;;;;1.50;0.63;;;9.50;99.90;;;;;;5059296;28;20955;-47
2023/12/25 02:15:09;;;;;;;1.50;0.80;;;9.50;99.90;;;;;;5061670;28;20446;-48
2023/12/25 02:17:38;;;;;;;1.77;0.63;;;9.50;99.90;;;;;;5056322;28;20837;-49
2023/12/25 02:20:08;;;;;;;1.20;0.50;;;9.60;99.90;;;;;;5063538;28;20455;-49
2023/12/25 02:22:36;;;;;;;2.03;0.80;;;9.60;99.90;;;;;;5056638;28;20446;-48
2023/12/25 02:25:10;;;;;;;1.20;0.50;;;9.60;99.90;;;;;;5066883;28;20477;-47
2023/12/25 02:27:40;;;;;;;1.50;0.50;;;9.60;99.90;;;;;;5054990;28;20443;-50
2023/12/25 02:30:08;;;;;;;1.20;0.60;;;9.50;99.90;;;;;;5057659;28;20455;-48
2023/12/25 02:32:37;;;;;;;1.27;0.60;;;9.60;99.90;;;;;;5069649;28;20440;-47
2023/12/25 02:35:06;;;;;;;1.03;0.47;;;9.60;99.90;;;;;;5062793;28;20424;-48
2023/12/25 02:37:35;;;;;;;1.33;0.40;;;9.60;99.90;;;;;;5055683;28;20478;-48
2023/12/25 02:40:03;;;;;;;1.20;0.50;;;9.60;99.90;;;;;;5074755;28;20477;-49
2023/12/25 02:42:31;;;;;;;1.13;0.50;;;9.60;99.90;;;;;;5071157;28;20426;-50
2023/12/25 02:45:01;;;;;;;1.10;0.70;;;9.60;99.90;;;;;;5062884;28;20464;-49
2023/12/25 02:47:29;;;;;;;1.33;0.77;;;9.60;99.90;;;;;;5048958;28;20746;-47
2023/12/25 02:49:57;;;;;;;1.03;0.60;;;9.60;99.90;;;;;;5063367;28;20454;-50
2023/12/25 02:52:25;;;;;;;1.23;0.50;;;9.60;99.90;;;;;;5062897;28;20467;-51
2023/12/25 02:54:53;;;;;;;1.23;0.60;;;9.60;99.90;;;;;;5064531;28;20499;-49
2023/12/25 02:57:21;;;;;;;1.00;0.53;;;9.60;99.90;;;;;;5040565;28;20525;-48
2023/12/25 02:59:50;;;;;;;1.20;0.43;;;9.60;99.90;;;;;;5061896;28;20449;-48
2023/12/25 03:02:19;;;;;;;1.37;0.50;;;9.60;99.90;;;;;;5060091;28;20462;-47
2023/12/25 03:04:49;;;;;;;1.00;0.60;;;9.60;99.90;;;;;;5068590;28;20482;-49
2023/12/25 03:07:17;;;;;;;1.23;0.70;;;9.60;99.90;;;;;;5045523;28;20479;-48
2023/12/25 03:09:46;;;;;;;1.53;0.70;;;9.60;99.90;;;;;;5038807;28;20452;-49
2023/12/25 03:12:14;;;;;;;1.17;0.60;;;9.60;99.90;;;;;;5050760;28;20477;-49
2023/12/25 03:14:42;;;;;;;1.10;0.53;;;9.60;99.90;;;;;;5061586;28;20512;-50
2023/12/25 03:17:10;;;;;;;1.10;0.50;;;9.60;99.90;;;;;;5063796;28;20497;-49
2023/12/25 03:19:40;;;;;;;1.00;0.40;;;9.60;99.90;;;;;;5067679;28;20456;-49
2023/12/25 03:22:08;;;;;;;0.90;0.50;;;9.60;99.90;;;;;;5050653;28;20484;-49
2023/12/25 03:24:36;;;;;;;1.73;0.53;;;9.60;99.90;;;;;;5064202;28;21275;-48
2023/12/25 03:27:05;;;;;;;1.10;0.53;;;9.60;99.90;;;;;;5064674;28;20459;-49
2023/12/25 03:29:33;;;;;;;1.20;0.60;;;9.60;99.90;;;;;;5046261;28;20481;-47
2023/12/25 03:32:01;;;;;;;1.10;0.50;;;9.60;99.90;;;;;;5036113;28;20457;-50
2023/12/25 03:34:29;;;;;;;1.40;0.70;;;9.60;99.90;;;;;;5063214;28;20419;-48
2023/12/25 03:36:59;;;;;;;1.33;0.53;;;9.60;99.90;;;;;;5053058;28;20504;-47
2023/12/25 03:39:28;;;;;;;1.47;0.60;;;9.60;99.90;;;;;;5069079;28;20482;-48
2023/12/25 03:41:56;;;;;;;1.10;0.60;;;9.60;99.90;;;;;;5058531;28;20469;-48
2023/12/25 03:44:24;;;;;;;1.10;0.50;;;9.60;99.90;;;;;;5044771;28;21050;-47
2023/12/25 03:46:55;;;;;;;1.80;0.70;;;9.60;99.90;;;;;;5065027;28;20461;-47
2023/12/25 03:49:23;;;;;;;1.20;0.50;;;9.60;99.90;;;;;;5044405;28;20463;-48
2023/12/25 03:51:55;;;;;;;1.07;0.63;;;9.60;99.90;;;;;;5064057;28;20890;-47
2023/12/25 03:54:24;;;;;;;1.10;0.40;;;9.60;99.90;;;;;;5037809;28;20436;-47
2023/12/25 03:56:53;;;;;;;1.67;0.50;;;9.60;99.90;;;;;;5056424;28;20843;-50
2023/12/25 03:59:21;;;;;;;1.00;0.40;;;9.60;99.90;;;;;;5058727;28;20490;-46
2023/12/25 04:01:49;;;;;;;1.10;0.50;;;9.60;99.90;;;;;;5068685;28;20463;-48
2023/12/25 04:04:17;;;;;;;1.10;0.70;;;9.60;99.90;;;;;;5054378;28;20943;-48
2023/12/25 04:06:45;;;;;;;1.33;0.70;;;9.60;99.90;;;;;;5053417;28;20475;-47
2023/12/25 04:09:14;;;;;;;0.90;0.40;;;9.60;99.90;;;;;;5051363;28;20471;-47
2023/12/25 04:11:43;;;;;;;0.90;0.50;;;9.60;99.90;;;;;;5067584;28;20545;-49
2023/12/25 04:14:12;;;;;;;1.20;0.60;;;9.60;99.90;;;;;;5041151;28;20525;-48
2023/12/25 04:16:49;;;;;;;1.90;0.60;;;9.60;99.90;;;;;;5037571;28;20449;-45
2023/12/25 04:19:17;;;;;;;1.00;0.50;;;9.60;99.90;;;;;;5066203;28;20448;-48
2023/12/25 04:21:45;;;;;;;1.23;0.60;;;9.60;99.90;;;;;;5055090;28;20486;-49
2023/12/25 04:24:13;;;;;;;0.97;0.50;;;9.60;99.90;;;;;;5055319;28;20447;-47
2023/12/25 04:26:45;;;;;;;1.00;0.40;;;9.60;99.90;;;;;;5058873;28;20854;-47
2023/12/25 04:29:14;;;;;;;1.10;0.70;;;9.60;99.90;;;;;;5056241;28;20467;-48
2023/12/25 04:31:42;;;;;;;1.00;0.50;;;9.60;99.90;;;;;;5057996;28;20465;-49
2023/12/25 04:34:10;;;;;;;1.20;0.50;;;9.60;99.90;;;;;;5048160;28;20507;-49
2023/12/25 04:36:38;;;;;;;1.10;0.50;;;9.60;99.90;;;;;;5056259;28;20511;-50
2023/12/25 04:39:08;;;;;;;1.10;0.40;;;9.60;99.90;;;;;;5065172;28;20528;-48
2023/12/25 04:41:36;;;;;;;1.97;0.50;;;9.60;99.90;;;;;;5047480;28;20711;-51
2023/12/25 04:44:07;;;;;;;1.00;0.40;;;9.60;99.90;;;;;;5049532;28;20910;-49
2023/12/25 04:46:36;;;;;;;1.00;0.40;;;9.60;99.90;;;;;;5058637;28;20471;-49
2023/12/25 04:49:04;;;;;;;1.13;0.60;;;9.60;99.90;;;;;;5065655;28;20465;-49
2023/12/25 04:51:32;;;;;;;0.93;0.40;;;9.60;99.90;;;;;;5056259;28;20525;-48
2023/12/25 04:54:01;;;;;;;1.23;0.50;;;9.60;99.90;;;;;;5044887;28;20436;-49
2023/12/25 04:56:29;;;;;;;1.50;0.70;;;9.60;99.90;;;;;;5053091;28;20463;-49
2023/12/25 04:58:58;;;;;;;1.30;0.50;;;9.60;99.90;;;;;;5056482;28;20971;-49
2023/12/25 05:01:28;;;;;;;1.10;0.57;;;9.60;99.90;;;;;;5059145;28;20453;-49
2023/12/25 05:03:57;;;;;;;1.23;0.47;;;9.60;99.90;;;;;;5052138;28;20435;-49
2023/12/25 05:06:25;;;;;;;0.90;0.30;;;9.60;99.90;;;;;;5046096;28;20916;-47
2023/12/25 05:08:56;;;;;;;1.10;0.43;;;9.60;99.90;;;;;;5066783;28;20462;-47
2023/12/25 05:11:28;;;;;;;1.10;0.53;;;9.60;99.90;;;;;;5044510;28;20500;-49
2023/12/25 05:13:56;;;;;;;2.10;0.50;;;9.60;99.90;;;;;;5049694;28;21017;-49
2023/12/25 05:16:24;;;;;;;1.30;0.50;;;9.60;99.90;;;;;;5051035;28;20454;-50
2023/12/25 05:18:53;;;;;;;1.07;0.50;;;9.60;99.90;;;;;;5066686;28;20444;-49
2023/12/25 05:21:22;;;;;;;1.00;0.40;;;9.60;99.90;;;;;;5044116;28;20482;-47
2023/12/25 05:23:50;;;;;;;1.10;0.40;;;9.60;99.90;;;;;;5052977;28;20576;-48
2023/12/25 05:26:20;;;;;;;1.40;0.60;;;9.60;99.90;;;;;;5037166;28;20462;-47
2023/12/25 05:28:48;;;;;;;0.90;0.40;;;9.60;99.90;;;;;;5057731;28;20445;-50
2023/12/25 05:31:17;;;;;;;1.40;0.50;;;9.60;99.90;;;;;;5065344;28;20470;-49
2023/12/25 05:33:45;;;;;;;1.40;0.50;;;9.60;99.90;;;;;;5063284;28;20461;-49
2023/12/25 05:36:15;;;;;;;1.27;0.70;;;9.60;99.90;;;;;;5038031;28;20468;-49
2023/12/25 05:38:43;;;;;;;2.40;0.63;;;9.60;99.90;;;;;;5067692;28;20558;-49
2023/12/25 05:41:23;;;;;;;1.10;0.57;;;9.60;99.90;;;;;;5067188;28;20469;-48
2023/12/25 05:43:51;;;;;;;1.00;0.43;;;9.60;99.90;;;;;;5057224;28;21239;-49
2023/12/25 05:46:19;;;;;;;2.23;0.40;;;9.60;99.90;;;;;;5054509;28;20548;-49
2023/12/25 05:48:47;;;;;;;0.90;0.30;;;9.60;99.90;;;;;;5057030;28;21110;-50
2023/12/25 05:51:17;;;;;;;1.00;0.37;;;9.60;99.90;;;;;;5063926;28;21042;-47
2023/12/25 05:53:45;;;;;;;1.17;0.50;;;9.60;99.90;;;;;;5068017;28;20485;-49
2023/12/25 05:56:13;;;;;;;2.20;0.60;;;9.60;99.90;;;;;;5054400;28;20474;-47
2023/12/25 05:58:41;;;;;;;1.30;0.50;;;9.60;99.90;;;;;;5056356;28;20450;-47
2023/12/25 06:01:12;;;;;;;1.10;0.50;;;9.60;99.90;;;;;;5056525;28;20987;-48
2023/12/25 06:03:41;;;;;;;1.00;0.40;;;9.60;99.90;;;;;;5060492;28;20496;-50
2023/12/25 06:06:09;;;;;;;1.10;0.50;;;9.60;99.90;;;;;;5052396;28;20497;-48
2023/12/25 06:08:39;;;;;;;1.00;0.33;;;9.60;99.90;;;;;;5067629;28;20483;-48
2023/12/25 06:11:07;;;;;;;1.00;0.40;;;9.60;99.90;;;;;;5053398;28;21001;-50
2023/12/25 06:13:35;;;;;;;1.00;0.50;;;9.60;99.90;;;;;;5037761;28;20469;-50
2023/12/25 06:16:04;;;;;;;1.00;0.50;;;9.60;99.90;;;;;;5055019;28;20875;-48
2023/12/25 06:18:32;;;;;;;1.63;0.40;;;9.60;99.90;;;;;;5067874;28;20434;-48
2023/12/25 06:21:01;;;;;;;0.93;0.50;;;9.60;99.90;;;;;;5045796;28;20484;-49
2023/12/25 06:23:29;;;;;;;1.03;0.43;;;9.70;99.90;;;;;;5067299;28;20460;-47
2023/12/25 06:26:00;;;;;;;0.90;0.50;;;9.60;99.90;;;;;;5055319;28;20474;-49
2023/12/25 06:28:28;;;;;;;1.20;0.70;;;9.70;99.90;;;;;;5059274;28;20525;-48
2023/12/25 06:30:56;;;;;;;1.07;0.40;;;9.60;99.90;;;;;;5064521;28;21068;-50
2023/12/25 06:33:25;;;;;;;2.83;0.50;;;9.60;99.90;;;;;;5057812;28;20532;-48
2023/12/25 06:35:53;;;;;;;0.93;0.30;;;9.60;99.90;;;;;;5054022;28;20452;-49
2023/12/25 06:38:21;;;;;;;1.20;0.60;;;9.70;99.90;;;;;;5047399;28;20489;-49
2023/12/25 06:40:50;;;;;;;1.17;0.57;;;9.60;99.90;;;;;;5066694;28;20475;-50
2023/12/25 06:43:19;;;;;;;1.00;0.40;;;9.70;99.90;;;;;;5043716;28;20500;-50
2023/12/25 06:45:47;;;;;;;1.00;0.50;;;9.60;99.90;;;;;;5047041;28;20630;-46
2023/12/25 06:48:15;;;;;;;0.90;0.40;;;9.70;99.90;;;;;;5057348;28;20447;-46
2023/12/25 06:50:44;;;;;;;1.30;0.43;;;9.70;99.90;;;;;;5069564;28;20554;-51
2023/12/25 06:53:12;;;;;;;1.10;0.50;;;9.60;99.90;;;;;;5060800;28;20471;-46
2023/12/25 06:55:40;;;;;;;1.20;0.40;;;9.70;99.90;;;;;;5045852;28;20462;-48
2023/12/25 06:58:08;;;;;;;1.07;0.50;;;9.70;99.90;;;;;;5055849;28;20798;-48
2023/12/25 07:00:38;;;;;;;0.90;0.40;;;9.70;99.90;;;;;;5066960;28;20571;-50
2023/12/25 07:03:06;;;;;;;1.10;0.50;;;9.70;99.90;;;;;;5066742;28;20513;-50
2023/12/25 07:05:35;;;;;;;1.50;0.60;;;9.70;99.90;;;;;;5057467;28;20467;-47
2023/12/25 07:08:04;;;;;;;1.10;0.40;;;9.70;99.90;;;;;;5062488;28;20463;-47
2023/12/25 07:10:32;;;;;;;0.97;0.50;;;9.70;99.90;;;;;;5065202;28;20472;-47
2023/12/25 07:13:00;;;;;;;0.80;0.40;;;9.70;99.90;;;;;;5053465;28;20449;-50
2023/12/25 07:15:29;;;;;;;0.90;0.37;;;9.70;99.90;;;;;;5053661;28;20878;-50
2023/12/25 07:17:58;;;;;;;0.80;0.40;;;9.70;99.90;;;;;;5060400;28;20436;-48
2023/12/25 07:20:27;;;;;;;1.00;0.60;;;9.60;99.90;;;;;;5044291;28;20826;-47
2023/12/25 07:22:55;;;;;;;1.00;0.40;;;9.70;99.90;;;;;;5065163;28;20496;-49
2023/12/25 07:25:23;;;;;;;2.70;0.40;;;9.70;99.90;;;;;;5064204;28;20419;-47
2023/12/25 07:27:51;;;;;;;0.80;0.40;;;9.70;99.90;;;;;;5052990;28;20504;-48
2023/12/25 07:30:20;;;;;;;1.30;0.50;;;9.70;99.90;;;;;;5071332;28;20846;-46
2023/12/25 07:32:48;;;;;;;0.90;0.40;;;9.70;99.90;;;;;;5054548;28;20448;-47
2023/12/25 07:35:18;;;;;;;0.90;0.30;;;9.70;99.90;;;;;;5048503;28;20482;-49
2023/12/25 07:37:48;;;;;;;0.90;0.40;;;9.70;99.90;;;;;;5045499;28;20444;-50
2023/12/25 07:40:16;;;;;;;0.80;0.30;;;9.70;99.90;;;;;;5044207;28;20450;-48
2023/12/25 07:42:44;;;;;;;0.90;0.47;;;9.70;99.90;;;;;;5038216;28;20447;-49
2023/12/25 07:45:13;;;;;;;1.43;0.50;;;9.70;99.90;;;;;;5039535;28;20804;-49
2023/12/25 07:47:41;;;;;;;1.00;0.50;;;9.70;99.90;;;;;;5045654;28;20906;-48
2023/12/25 07:50:10;;;;;;;1.00;0.40;;;9.70;99.90;;;;;;5046984;28;20513;-48
2023/12/25 07:52:40;;;;;;;1.10;0.50;;;9.70;99.90;;;;;;5043011;28;20451;-47
2023/12/25 07:55:08;;;;;;;0.87;0.33;;;9.70;99.90;;;;;;5045575;28;20432;-48
2023/12/25 07:57:36;;;;;;;1.97;0.40;;;9.70;99.90;;;;;;5047493;28;20424;-48
2023/12/25 08:00:07;;;;;;;1.00;0.40;;;9.70;99.90;;;;;;5046475;28;20452;-49
2023/12/25 08:02:38;;;;;;;1.00;0.43;;;9.70;99.90;;;;;;5049200;28;20470;-48
2023/12/25 08:05:07;;;;;;;1.27;0.37;;;9.70;99.90;;;;;;5042868;28;20433;-48
2023/12/25 08:07:35;;;;;;;1.03;0.40;;;9.70;99.90;;;;;;5043772;28;20462;-48
2023/12/25 08:10:05;;;;;;;0.90;0.40;;;9.70;99.90;;;;;;5048621;28;20512;-47
2023/12/25 08:12:33;;;;;;;0.87;0.40;;;9.70;99.90;;;;;;5046272;28;20463;-49
2023/12/25 08:15:01;;;;;;;0.80;0.30;;;9.70;99.90;;;;;;5038503;28;20506;-47
2023/12/25 08:17:29;;;;;;;1.10;0.40;;;9.70;99.90;;;;;;5049692;28;20467;-47
2023/12/25 08:19:58;;;;;;;0.90;0.40;;;9.70;99.90;;;;;;5048059;28;20545;-50
2023/12/25 08:22:26;;;;;;;1.00;0.50;;;9.70;99.90;;;;;;5044537;28;20474;-47
2023/12/25 08:24:54;;;;;;;1.00;0.40;;;9.70;99.90;;;;;;5039321;28;20485;-48
2023/12/25 08:27:23;;;;;;;1.00;0.50;;;9.70;99.90;;;;;;5044795;28;20484;-47
2023/12/25 08:29:54;;;;;;;1.00;0.50;;;9.70;99.90;;;;;;5044887;28;20535;-48
2023/12/25 08:32:22;;;;;;;0.90;0.37;;;9.70;99.90;;;;;;5048587;28;20467;-48
2023/12/25 08:34:50;;;;;;;0.80;0.40;;;9.70;99.90;;;;;;5041555;28;20703;-47
2023/12/25 08:37:18;;;;;;;0.80;0.30;;;9.70;99.90;;;;;;5038839;28;21091;-47
2023/12/25 08:39:47;;;;;;;0.97;0.40;;;9.70;99.90;;;;;;5049176;28;20864;-48
2023/12/25 08:42:15;;;;;;;1.17;0.40;;;9.70;99.90;;;;;;5048656;28;20517;-47
2023/12/25 08:44:45;;;;;;;1.00;0.50;;;9.70;99.90;;;;;;5042072;28;20980;-48
2023/12/25 08:47:13;;;;;;;0.80;0.30;;;9.70;99.90;;;;;;5037463;28;20464;-47
2023/12/25 08:49:42;;;;;;;0.80;0.40;;;9.70;99.90;;;;;;5048423;28;20453;-49
2023/12/25 08:52:10;;;;;;;0.90;0.40;;;9.70;99.90;;;;;;5047492;28;20559;-47
2023/12/25 08:54:38;;;;;;;1.30;0.50;;;9.70;99.90;;;;;;5045463;28;20427;-47
2023/12/25 08:57:06;;;;;;;1.07;0.50;;;9.70;99.90;;;;;;5047059;28;20463;-47
2023/12/25 08:59:36;;;;;;;1.00;0.60;;;9.70;99.90;;;;;;5038793;28;20885;-49
2023/12/25 09:02:06;;;;;;;0.90;0.30;;;9.70;99.90;;;;;;5033101;28;20556;-48
2023/12/25 09:04:35;;;;;;;0.80;0.30;;;9.70;99.90;;;;;;5049458;28;20960;-50
2023/12/25 09:07:03;;;;;;;0.80;0.40;;;9.70;99.90;;;;;;5038009;28;20471;-46
2023/12/25 09:09:31;;;;;;;0.90;0.30;;;9.70;99.90;;;;;;5064442;28;20467;-47
2023/12/25 09:11:59;;;;;;;0.80;0.40;;;9.70;99.90;;;;;;5045058;28;20464;-47
2023/12/25 09:14:27;;;;;;;0.87;0.30;;;9.70;99.90;;;;;;5045579;28;20431;-47
2023/12/25 09:16:56;;;;;;;1.03;0.40;;;9.70;99.90;;;;;;5046226;28;20554;-46
2023/12/25 09:19:26;;;;;;;0.90;0.30;;;9.70;99.90;;;;;;5041097;28;20486;-47
2023/12/25 09:21:54;;;;;;;1.13;0.53;;;9.70;99.90;;;;;;5048834;28;21281;-47
2023/12/25 09:24:22;;;;;;;0.90;0.40;;;9.70;99.90;;;;;;5045741;28;20509;-49
2023/12/25 09:26:50;;;;;;;1.00;0.40;;;9.70;99.90;;;;;;5039129;28;21074;-47
2023/12/25 09:29:19;;;;;;;1.10;0.40;;;9.70;99.90;;;;;;5042449;28;21025;-47
2023/12/25 09:31:47;;;;;;;1.00;0.40;;;9.70;99.90;;;;;;5043242;28;20516;-48
2023/12/25 09:34:15;;;;;;;1.00;0.40;;;9.70;99.90;;;;;;5048053;28;20427;-49
2023/12/25 09:36:44;;;;;;;1.00;0.40;;;9.70;99.90;;;;;;5032148;28;21000;-48
2023/12/25 09:39:12;;;;;;;0.87;0.40;;;9.70;99.90;;;;;;5039308;28;20442;-48
2023/12/25 09:41:41;;;;;;;1.03;0.30;;;9.70;99.90;;;;;;5040751;28;20900;-50
2023/12/25 09:44:09;;;;;;;0.80;0.30;;;9.70;99.90;;;;;;5034211;28;20444;-49
2023/12/25 09:46:38;;;;;;;0.97;0.37;;;9.70;99.90;;;;;;5046031;28;20474;-50
2023/12/25 09:49:06;;;;;;;1.83;0.60;;;9.70;99.90;;;;;;5040286;28;20467;-46
2023/12/25 09:51:36;;;;;;;0.90;0.40;;;9.70;99.90;;;;;;5036005;28;20469;-48
2023/12/25 09:54:06;;;;;;;0.80;0.30;;;9.70;99.90;;;;;;5036097;28;20960;-48
2023/12/25 09:56:37;;;;;;;1.10;0.40;;;9.70;99.90;;;;;;5039129;28;20488;-48
2023/12/25 09:59:07;;;;;;;0.93;0.43;;;9.70;99.90;;;;;;5039619;28;20554;-46
2023/12/25 10:01:37;;;;;;;0.90;0.33;;;9.70;99.90;;;;;;5047590;28;20451;-47
2023/12/25 10:04:06;;;;;;;0.80;0.40;;;9.70;99.90;;;;;;5031437;28;20432;-45
2023/12/25 10:06:34;;;;;;;0.80;0.30;;;9.70;99.90;;;;;;5027312;28;20566;-48
2023/12/25 10:09:04;;;;;;;0.90;0.40;;;9.80;99.90;;;;;;5044383;28;20474;-47
2023/12/25 10:11:34;;;;;;;0.90;0.40;;;9.70;99.90;;;;;;5039399;28;20462;-46
2023/12/25 10:14:03;;;;;;;1.27;0.50;;;9.70;99.90;;;;;;5038531;28;20479;-46
2023/12/25 10:16:31;;;;;;;1.00;0.40;;;9.70;99.90;;;;;;5041203;28;20493;-48
2023/12/25 10:18:59;;;;;;;0.90;0.50;;;9.70;99.90;;;;;;5040978;28;20452;-48
2023/12/25 10:21:27;;;;;;;0.90;0.30;;;9.80;99.90;;;;;;5032903;28;20542;-47
2023/12/25 10:23:56;;;;;;;0.80;0.40;;;9.70;99.90;;;;;;5032551;28;20420;-52
2023/12/25 10:26:28;;;;;;;0.90;0.50;;;9.80;99.90;;;;;;5036521;28;20484;-47
2023/12/25 10:29:09;;;;;;;2.30;0.60;;;9.80;99.90;;;;;;5035766;28;20466;-46
2023/12/25 10:31:38;;;;;;;0.90;0.40;;;9.80;99.90;;;;;;5044316;28;20471;-45
2023/12/25 10:34:07;;;;;;;0.90;0.40;;;9.80;99.90;;;;;;5030595;28;20437;-46
2023/12/25 10:36:35;;;;;;;0.90;0.40;;;9.80;99.90;;;;;;5040043;28;20472;-46
2023/12/25 10:39:03;;;;;;;0.80;0.30;;;9.80;99.90;;;;;;5047284;28;20790;-44
2023/12/25 10:41:35;;;;;;;1.00;0.30;;;9.80;99.90;;;;;;5042442;28;20476;-49
2023/12/25 10:44:05;;;;;;;1.13;0.50;;;9.80;99.90;;;;;;5043537;28;20485;-48
2023/12/25 10:46:37;;;;;;;1.70;0.40;;;9.80;99.90;;;;;;5037122;28;20980;-45
2023/12/25 10:49:07;;;;;;;0.90;0.30;;;9.80;99.90;;;;;;5035742;28;20474;-46
2023/12/25 10:51:37;;;;;;;2.25;0.60;;;9.80;99.90;;;;;;5041452;28;20441;-49
2023/12/25 10:54:08;;;;;;;1.10;0.40;;;9.90;99.90;;;;;;5033506;28;20202;-47
2023/12/25 10:56:39;;;;;;;1.20;0.30;;;9.90;99.90;;;;;;5046921;28;20463;-48
2023/12/25 10:59:16;;;;;;;0.97;0.40;;;9.90;99.90;;;;;;5033487;28;20462;-46
2023/12/25 11:01:48;;;;;;;1.20;0.40;;;9.90;99.90;;;;;;5045107;28;20474;-48
2023/12/25 11:04:17;;;;;;;0.93;0.50;;;9.80;99.90;;;;;;5037264;28;20433;-48
2023/12/25 11:06:46;;;;;;;0.90;0.40;;;9.80;99.90;;;;;;5041800;28;21009;-46
2023/12/25 11:09:17;;;;;;;0.90;0.40;;;9.80;99.90;;;;;;5041398;28;20474;-48
2023/12/25 11:11:45;;;;;;;0.80;0.30;;;9.80;99.90;;;;;;5037497;28;20475;-45
2023/12/25 11:14:14;;;;;;;2.03;0.53;;;9.80;99.90;;;;;;5039974;28;20522;-46
2023/12/25 11:16:42;;;;;;;1.30;0.40;;;9.80;99.90;;;;;;5037617;28;20464;-46
2023/12/25 11:19:12;;;;;;;0.93;0.50;;;9.80;99.90;;;;;;5041049;28;20452;-48
2023/12/25 11:21:41;;;;;;;1.43;0.50;;;9.80;99.90;;;;;;5036102;28;20459;-48
2023/12/25 11:24:11;;;;;;;1.80;0.50;;;9.80;99.90;;;;;;5039448;28;20935;-48
2023/12/25 11:26:39;;;;;;;1.13;0.47;;;9.80;99.90;;;;;;5045542;28;20474;-47
2023/12/25 11:29:10;;;;;;;1.00;0.50;;;9.80;99.90;;;;;;5039727;28;20479;-48
2023/12/25 11:31:43;;;;;;;1.00;0.33;;;9.80;99.90;;;;;;5041871;28;20486;-48
2023/12/25 11:34:23;;;;;;;0.87;0.40;;;9.80;99.90;;;;;;5039219;28;20448;-45
2023/12/25 11:36:58;;;;;;;0.90;0.50;;;9.80;99.90;;;;;;5056255;28;21063;-46
2023/12/25 11:39:28;;;;;;;1.10;0.47;;;9.80;99.90;;;;;;5043236;28;20451;-46
2023/12/25 11:41:57;;;;;;;1.10;0.70;;;9.80;99.90;;;;;;5040603;28;20993;-46
2023/12/25 11:44:31;;;;;;;1.00;0.50;;;9.80;99.90;;;;;;5044242;28;20447;-46
2023/12/25 11:47:00;;;;;;;0.90;0.40;;;9.80;99.90;;;;;;5040220;28;20551;-48
2023/12/25 11:49:32;;;;;;;1.00;0.40;;;9.80;99.90;;;;;;5039883;28;20557;-46
2023/12/25 11:52:00;;;;;;;0.90;0.40;;;9.80;99.90;;;;;;5036998;28;20478;-47
2023/12/25 11:54:29;;;;;;;1.17;0.30;;;9.80;99.90;;;;;;5046743;28;20470;-46
2023/12/25 11:56:58;;;;;;;0.97;0.30;;;9.80;99.90;;;;;;5049934;28;20984;-48
2023/12/25 11:59:27;;;;;;;0.97;0.43;;;9.80;99.90;;;;;;5044611;28;20469;-49
2023/12/25 12:01:55;;;;;;;0.80;0.40;;;9.80;99.90;;;;;;5039846;28;20460;-47
2023/12/25 12:04:23;;;;;;;0.80;0.40;;;9.90;99.90;;;;;;5040076;28;20673;-46
2023/12/25 12:06:53;;;;;;;0.90;0.40;;;9.90;99.90;;;;;;5038483;28;20866;-47
2023/12/25 12:09:21;;;;;;;0.90;0.30;;;9.90;99.90;;;;;;5042028;28;20528;-47
2023/12/25 12:11:49;;;;;;;1.83;0.50;;;9.80;99.90;;;;;;5027563;28;20469;-48
2023/12/25 12:14:18;;;;;;;0.80;0.40;;;9.90;99.90;;;;;;5036920;28;20451;-47
2023/12/25 12:16:46;;;;;;;1.53;0.90;;;9.90;99.90;;;;;;5044214;28;20452;-47
2023/12/25 12:19:15;;;;;;;1.00;0.50;;;9.90;99.90;;;;;;5047285;28;20528;-45
2023/12/25 12:21:43;;;;;;;0.80;0.30;;;9.90;99.90;;;;;;5031135;28;20713;-46
2023/12/25 12:24:27;;;;;;;1.10;0.40;;;9.90;99.90;;;;;;5039950;28;20440;-48
2023/12/25 12:27:02;;;;;;;1.47;0.40;;;9.90;99.90;;;;;;5030581;28;20498;-48
2023/12/25 12:29:30;;;;;;;0.97;0.40;;;9.90;99.90;;;;;;5042283;28;20478;-47
2023/12/25 12:31:58;;;;;;;1.00;0.57;;;9.90;99.90;;;;;;5041573;28;20484;-47
2023/12/25 12:34:27;;;;;;;1.00;0.50;;;9.90;99.90;;;;;;5039916;28;20421;-48
2023/12/25 12:36:59;;;;;;;0.90;0.40;;;9.90;99.90;;;;;;5038641;28;20972;-48
2023/12/25 12:39:30;;;;;;;0.90;0.40;;;9.90;99.90;;;;;;5045104;28;20461;-48
2023/12/25 12:41:59;;;;;;;0.80;0.37;;;9.90;99.90;;;;;;5037970;28;20458;-46
2023/12/25 12:44:27;;;;;;;1.00;0.60;;;9.90;99.90;;;;;;5041267;28;20445;-47
2023/12/25 12:46:55;;;;;;;0.90;0.40;;;9.90;99.90;;;;;;5037004;28;20994;-47
2023/12/25 12:49:25;;;;;;;0.90;0.50;;;9.90;99.90;;;;;;5045280;28;20460;-47
2023/12/25 12:51:54;;;;;;;0.90;0.40;;;9.90;99.90;;;;;;5037478;28;20496;-47
2023/12/25 12:54:22;;;;;;;1.30;0.60;;;9.90;99.90;;;;;;5040230;28;20432;-47
2023/12/25 12:56:52;;;;;;;0.80;0.30;;;9.90;99.90;;;;;;5038456;28;20452;-47
2023/12/25 12:59:20;;;;;;;1.10;0.57;;;9.90;99.90;;;;;;5039758;28;20452;-48
2023/12/25 13:01:48;;;;;;;1.00;0.50;;;9.90;99.90;;;;;;5041030;28;20497;-47
2023/12/25 13:04:17;;;;;;;2.10;0.40;;;9.90;99.90;;;;;;5048275;28;20461;-47
2023/12/25 13:06:45;;;;;;;0.80;0.30;;;9.90;99.90;;;;;;5040774;28;20483;-46